createdAt,value
2023-03-20T00:03:21.206Z,100000.28
2023-03-20T00:07:23.177Z,100003.75
2023-03-20T00:11:33.459Z,99996.81
2023-03-20T00:15:38.130Z,100010.19
2023-03-20T00:19:41.575Z,100009.72
2023-03-20T00:23:43.537Z,100004.72
2023-03-20T00:27:45.542Z,99998.06
2023-03-20T00:31:47.739Z,100012.84
2023-03-20T00:35:49.933Z,100008.44
2023-03-20T00:39:51.846Z,100008.00
2023-03-20T00:44:25.537Z,100004.00
2023-03-20T00:48:27.824Z,100014.41
2023-03-20T00:52:30.002Z,100012.38
2023-03-20T00:56:39.405Z,100003.25
2023-03-20T01:00:44.656Z,100005.66
2023-03-20T01:04:46.699Z,100015.22
2023-03-20T01:08:48.866Z,100012.91
2023-03-20T01:12:50.776Z,100012.53
2023-03-20T01:16:52.775Z,100001.69
2023-03-20T01:20:54.593Z,99998.63
2023-03-20T01:24:56.475Z,99993.47
2023-03-20T01:28:58.338Z,100005.22
2023-03-20T01:33:00.435Z,99988.34
2023-03-20T01:37:02.236Z,99987.25
2023-03-20T01:41:12.906Z,99993.56
2023-03-20T01:45:21.274Z,99997.34
2023-03-20T01:49:23.074Z,99989.38
2023-03-20T01:53:26.602Z,99992.00
2023-03-20T01:57:28.498Z,99995.91
2023-03-20T02:01:30.721Z,99985.66
2023-03-20T02:05:32.726Z,100001.75
2023-03-20T02:09:34.768Z,99996.59
2023-03-20T02:13:36.610Z,99997.13
2023-03-20T02:17:38.459Z,99989.38
2023-03-20T02:22:07.818Z,99992.09
2023-03-20T02:26:47.078Z,99993.06
2023-03-20T02:31:16.116Z,99999.28
2023-03-20T02:35:58.739Z,99996.00
2023-03-20T02:40:38.576Z,99994.03
2023-03-20T02:45:20.001Z,99988.13
2023-03-20T02:50:10.949Z,99993.00
2023-03-20T02:54:28.723Z,100004.72
2023-03-20T02:58:50.696Z,100000.81
2023-03-20T03:03:08.062Z,99999.69
2023-03-20T03:07:17.091Z,99989.06
2023-03-20T03:11:25.061Z,99990.66
2023-03-20T03:15:40.164Z,99989.38
2023-03-20T03:19:53.095Z,99991.69
2023-03-20T03:23:54.896Z,99992.16
2023-03-20T03:28:13.365Z,99984.38
2023-03-20T03:32:34.882Z,99984.91
2023-03-20T03:37:02.313Z,99981.00
2023-03-20T03:41:18.593Z,99984.91
2023-03-20T03:45:32.810Z,99988.50
2023-03-20T03:49:37.983Z,99992.91
2023-03-20T03:53:44.811Z,99983.78
2023-03-20T03:57:53.570Z,99968.44
2023-03-20T04:01:55.592Z,99993.25
2023-03-20T04:05:57.921Z,99982.53
2023-03-20T04:10:00.050Z,99979.66
2023-03-20T04:15:25.970Z,99986.56
2023-03-20T04:19:27.790Z,99990.78
2023-03-20T04:23:31.954Z,99983.41
2023-03-20T04:27:33.789Z,99995.97
2023-03-20T04:31:35.931Z,99988.91
2023-03-20T04:35:38.028Z,99997.09
2023-03-20T04:39:42.463Z,99992.34
2023-03-20T04:43:44.328Z,99995.13
2023-03-20T04:47:46.190Z,99995.44
2023-03-20T04:51:48.010Z,99998.06
2023-03-20T04:55:51.204Z,99995.75
2023-03-20T04:59:53.185Z,100006.22
2023-03-20T05:04:00.843Z,100017.50
2023-03-20T05:08:02.839Z,100015.34
2023-03-20T05:12:05.515Z,100021.81
2023-03-20T05:16:08.010Z,100026.88
2023-03-20T05:20:12.969Z,100022.84
2023-03-20T05:24:14.867Z,100042.22
2023-03-20T05:28:16.770Z,100046.56
2023-03-20T05:32:20.012Z,100042.06
2023-03-20T05:36:21.938Z,100051.66
2023-03-20T05:40:25.572Z,100051.72
2023-03-20T05:44:27.371Z,100065.19
2023-03-20T05:48:29.193Z,100064.19
2023-03-20T05:52:31.158Z,100056.03
2023-03-20T05:56:33.367Z,100069.41
2023-03-20T06:00:35.969Z,100064.19
2023-03-20T06:04:38.039Z,100071.03
2023-03-20T06:08:39.981Z,100064.53
2023-03-20T06:12:42.039Z,100070.81
2023-03-20T06:16:43.945Z,100070.41
2023-03-20T06:20:46.002Z,100068.16
2023-03-20T06:24:47.934Z,100077.44
2023-03-20T06:28:49.927Z,100073.06
2023-03-20T06:32:54.416Z,100085.47
2023-03-20T06:36:56.424Z,100077.31
2023-03-20T06:40:58.341Z,100080.63
2023-03-20T06:45:00.577Z,100087.91
2023-03-20T06:49:02.498Z,100082.53
2023-03-20T06:53:04.371Z,100083.72
2023-03-20T06:57:06.428Z,100073.75
2023-03-20T07:01:17.274Z,100057.13
2023-03-20T07:05:19.511Z,100067.59
2023-03-20T07:09:22.294Z,100056.22
2023-03-20T07:13:24.333Z,100061.75
2023-03-20T07:17:26.868Z,100056.59
2023-03-20T07:21:28.855Z,100046.28
2023-03-20T07:25:41.964Z,100060.94
2023-03-20T07:29:45.602Z,100056.94
2023-03-20T07:33:48.722Z,100058.91
2023-03-20T07:37:50.572Z,100060.28
2023-03-20T07:41:52.509Z,100069.28
2023-03-20T07:45:54.644Z,100069.47
2023-03-20T07:49:56.555Z,100065.81
2023-03-20T07:53:58.478Z,100074.31
2023-03-20T07:58:00.353Z,100083.00
2023-03-20T08:02:02.246Z,100083.97
2023-03-20T08:06:06.501Z,100081.81
2023-03-20T08:10:09.615Z,100078.16
2023-03-20T08:14:11.822Z,100073.59
2023-03-20T08:18:14.358Z,100089.16
2023-03-20T08:22:16.536Z,100085.94
2023-03-20T08:26:18.505Z,100090.53
2023-03-20T08:30:20.724Z,100091.03
2023-03-20T08:34:24.124Z,100109.63
2023-03-20T08:38:26.088Z,100096.31
2023-03-20T08:42:28.046Z,100114.81
2023-03-20T08:46:29.946Z,100105.50
2023-03-20T08:50:32.280Z,100092.06
2023-03-20T08:54:34.361Z,100079.75
2023-03-20T08:58:36.232Z,100097.84
2023-03-20T09:02:38.283Z,100103.53
2023-03-20T09:06:41.071Z,100118.19
2023-03-20T09:10:43.480Z,100115.06
2023-03-20T09:14:45.704Z,100107.53
2023-03-20T09:18:47.652Z,100135.00
2023-03-20T09:22:49.712Z,100105.97
2023-03-20T09:26:52.261Z,100104.56
2023-03-20T09:31:00.267Z,100113.16
2023-03-20T09:35:03.080Z,100143.88
2023-03-20T09:39:05.185Z,100088.47
2023-03-20T09:43:50.253Z,100114.28
2023-03-20T09:48:09.938Z,100138.66
2023-03-20T09:52:31.348Z,100123.34
2023-03-20T09:56:33.295Z,100142.91
2023-03-20T10:00:36.801Z,100158.00
2023-03-20T10:04:38.833Z,100127.19
2023-03-20T10:08:43.029Z,100143.03
2023-03-20T10:13:24.561Z,100128.13
2023-03-20T10:17:33.535Z,100129.22
2023-03-20T10:21:46.922Z,100133.13
2023-03-20T10:25:52.374Z,100131.25
2023-03-20T10:30:22.490Z,100130.38
2023-03-20T10:34:41.890Z,100125.00
2023-03-20T10:39:27.101Z,100127.97
2023-03-20T10:43:38.169Z,100127.50
2023-03-20T10:47:42.785Z,100124.31
2023-03-20T10:51:49.709Z,100126.84
2023-03-20T10:55:51.743Z,100126.31
2023-03-20T11:00:00.083Z,100117.13
2023-03-20T11:04:02.123Z,100128.78
2023-03-20T11:08:06.446Z,100115.88
2023-03-20T11:12:18.415Z,100130.78
2023-03-20T11:16:31.686Z,100127.03
2023-03-20T11:20:56.993Z,100126.91
2023-03-20T11:25:01.914Z,100123.72
2023-03-20T11:29:08.378Z,100128.25
2023-03-20T11:33:10.616Z,100115.34
2023-03-20T11:37:26.095Z,100125.19
2023-03-20T11:41:28.865Z,100117.53
2023-03-20T11:45:42.137Z,100103.31
2023-03-20T11:49:50.608Z,100114.94
2023-03-20T11:54:04.226Z,100105.06
2023-03-20T11:58:06.569Z,100099.53
2023-03-20T12:02:22.867Z,100112.53
2023-03-20T12:06:39.923Z,100111.50
2023-03-20T12:10:43.165Z,100086.94
2023-03-20T12:15:01.860Z,100095.28
2023-03-20T12:19:09.788Z,100108.63
2023-03-20T12:23:57.487Z,100088.00
2023-03-20T12:28:17.985Z,100096.91
2023-03-20T12:32:45.134Z,100096.47
2023-03-20T12:36:49.041Z,100075.84
2023-03-20T12:40:55.198Z,100084.63
2023-03-20T12:45:12.738Z,100074.00
2023-03-20T12:49:52.015Z,100078.34
2023-03-20T12:54:19.071Z,100077.22
2023-03-20T12:58:51.189Z,100080.94
2023-03-20T13:03:17.333Z,100088.34
2023-03-20T13:07:21.459Z,100067.28
2023-03-20T13:12:12.828Z,100049.44
2023-03-20T13:16:47.946Z,100053.25
2023-03-20T13:20:56.764Z,100045.91
2023-03-20T13:25:49.383Z,100055.34
2023-03-20T13:30:33.410Z,100054.81
2023-03-20T13:35:14.271Z,100054.13
2023-03-20T13:39:46.849Z,100045.44
2023-03-20T13:43:57.489Z,100032.72
2023-03-20T13:48:04.678Z,100041.72
2023-03-20T13:52:22.080Z,100040.88
2023-03-20T13:56:32.634Z,100044.31
2023-03-20T14:00:47.239Z,100040.91
2023-03-20T14:04:52.709Z,100048.38
2023-03-20T14:08:55.151Z,100047.41
2023-03-20T14:13:05.260Z,100049.22
2023-03-20T14:17:22.449Z,100032.63
2023-03-20T14:21:29.614Z,100034.38
2023-03-20T14:25:40.400Z,100035.50
2023-03-20T14:29:42.444Z,100043.69
2023-03-20T14:33:46.140Z,100055.56
2023-03-20T14:38:18.735Z,100068.13
2023-03-20T14:42:54.964Z,100064.97
2023-03-20T14:47:07.100Z,100059.03
2023-03-20T14:51:35.182Z,100071.25
2023-03-20T14:56:12.115Z,100055.75
2023-03-20T15:00:28.724Z,100054.06
2023-03-20T15:04:43.229Z,100076.13
2023-03-20T15:08:53.434Z,100074.50
2023-03-20T15:12:55.839Z,100076.34
2023-03-20T15:17:01.869Z,100069.28
2023-03-20T15:21:04.073Z,100079.09
2023-03-20T15:25:08.293Z,100085.91
2023-03-20T15:29:16.630Z,100065.56
2023-03-20T15:33:43.811Z,100080.63
2023-03-20T15:38:24.549Z,100069.31
2023-03-20T15:42:27.818Z,100052.22
2023-03-20T15:46:34.993Z,100058.94
2023-03-20T15:50:46.482Z,100067.75
2023-03-20T15:54:48.889Z,100064.75
2023-03-20T15:58:52.599Z,100059.38
2023-03-20T16:02:56.769Z,100069.56
2023-03-20T16:07:00.560Z,100054.66
2023-03-20T16:11:11.052Z,100057.13
2023-03-20T16:15:17.229Z,100060.41
2023-03-20T16:19:19.386Z,100064.72
2023-03-20T16:23:38.073Z,100063.69
2023-03-20T16:27:52.097Z,100057.81
2023-03-20T16:31:57.769Z,100057.44
2023-03-20T16:35:59.942Z,100057.63
2023-03-20T16:40:15.437Z,100059.75
2023-03-20T16:44:23.165Z,100066.19
2023-03-20T16:48:39.528Z,100063.66
2023-03-20T16:52:48.963Z,100054.81
2023-03-20T16:56:54.149Z,100059.75
2023-03-20T17:01:01.589Z,100069.75
2023-03-20T17:05:06.996Z,100057.44
2023-03-20T17:09:23.051Z,100056.09
2023-03-20T17:13:25.162Z,100061.19
2023-03-20T17:17:43.755Z,100057.94
2023-03-20T17:21:51.381Z,100057.06
2023-03-20T17:25:54.121Z,100047.09
2023-03-20T17:29:56.748Z,100063.31
2023-03-20T17:33:58.686Z,100063.94
2023-03-20T17:38:02.715Z,100047.19
2023-03-20T17:42:24.515Z,100055.69
2023-03-20T17:46:31.468Z,100055.84
2023-03-20T17:50:33.465Z,100045.19
2023-03-20T17:54:35.741Z,100045.81
2023-03-20T17:58:46.204Z,100045.28
2023-03-20T18:02:55.817Z,100043.81
2023-03-20T18:07:01.685Z,100042.50
2023-03-20T18:11:10.931Z,100054.63
2023-03-20T18:15:12.863Z,100050.03
2023-03-20T18:19:35.894Z,100045.41
2023-03-20T18:23:41.138Z,100048.03
2023-03-20T18:27:44.244Z,100054.56
2023-03-20T18:31:52.389Z,100045.50
2023-03-20T18:35:58.389Z,100052.50
2023-03-20T18:40:05.421Z,100044.81
2023-03-20T18:44:07.840Z,100055.63
2023-03-20T18:48:22.807Z,100055.94
2023-03-20T18:52:33.614Z,100062.00
2023-03-20T18:56:39.731Z,100063.81
2023-03-20T19:00:47.714Z,100080.09
2023-03-20T19:04:49.844Z,100074.72
2023-03-20T19:08:54.022Z,100072.09
2023-03-20T19:12:58.736Z,100065.84
2023-03-20T19:17:00.582Z,100063.25
2023-03-20T19:21:05.323Z,100062.59
2023-03-20T19:25:07.566Z,100061.81
2023-03-20T19:29:11.623Z,100058.41
2023-03-20T19:33:16.390Z,100054.78
2023-03-20T19:37:18.628Z,100049.16
2023-03-20T19:41:24.221Z,100045.53
2023-03-20T19:45:31.662Z,100047.81
2023-03-20T19:49:40.845Z,100052.75
2023-03-20T19:53:43.858Z,100055.91
2023-03-20T19:57:48.480Z,100035.19
2023-03-20T20:01:51.137Z,100047.41
2023-03-20T20:05:53.475Z,100034.88
2023-03-20T20:09:55.743Z,100034.09
2023-03-20T20:14:07.751Z,100035.25
2023-03-20T20:18:11.625Z,100031.09
2023-03-20T20:22:24.845Z,100036.31
2023-03-20T20:26:31.322Z,100044.78
2023-03-20T20:30:37.793Z,100033.16
2023-03-20T20:39:03.979Z,100034.34
2023-03-20T20:43:10.378Z,100041.06
2023-03-20T20:47:13.233Z,100039.91
2023-03-20T20:51:15.416Z,100037.94
2023-03-20T20:55:27.867Z,100034.84
2023-03-20T20:59:30.414Z,100039.22
2023-03-20T21:03:33.888Z,100040.63
2023-03-20T21:07:35.979Z,100042.44
2023-03-20T21:11:37.912Z,100037.19
2023-03-20T21:15:40.309Z,100039.97
2023-03-20T21:19:43.647Z,100039.53
2023-03-20T21:23:46.322Z,100043.34
2023-03-20T21:27:48.199Z,100051.59
2023-03-20T21:31:50.252Z,100046.84
2023-03-20T21:35:53.899Z,100034.59
2023-03-20T21:39:56.948Z,100052.47
2023-03-20T21:44:01.247Z,100041.63
2023-03-20T21:48:41.392Z,100052.16
2023-03-20T21:53:10.453Z,100052.53
2023-03-20T21:57:37.313Z,100056.25
2023-03-20T22:06:37.300Z,100053.28
2023-03-20T22:10:51.314Z,100056.06
2023-03-20T22:15:12.006Z,100060.84
2023-03-20T22:28:23.269Z,100073.69
2023-03-20T22:37:19.330Z,100069.41
2023-03-20T22:41:36.094Z,100076.63
2023-03-20T22:45:07.867Z,100083.03
2023-03-20T22:49:10.347Z,100084.31
2023-03-20T22:53:12.271Z,100077.69
2023-03-20T22:57:14.106Z,100080.44
2023-03-20T23:01:16.100Z,100056.88
2023-03-20T23:05:18.027Z,100063.53
2023-03-20T23:09:19.915Z,100052.03
2023-03-20T23:13:22.551Z,100044.84
2023-03-20T23:17:24.523Z,100058.16
2023-03-20T23:21:28.152Z,100065.06
2023-03-20T23:25:38.607Z,100066.75
2023-03-20T23:29:40.997Z,100060.63
2023-03-20T23:33:43.610Z,100066.41
2023-03-20T23:37:46.653Z,100066.53
2023-03-20T23:42:06.544Z,100063.09
2023-03-20T23:46:10.867Z,100059.06
2023-03-20T23:50:20.804Z,100057.41
2023-03-20T23:54:28.584Z,100046.84
2023-03-20T23:58:30.864Z,100056.97
